createdAt,value
2022-12-15T00:00:52.425Z,88.80
2022-12-15T00:02:11.927Z,88.90
2022-12-15T00:02:52.197Z,88.90
2022-12-15T00:03:53.395Z,88.90
2022-12-15T00:04:51.670Z,89.01
2022-12-15T00:05:51.902Z,89.16
2022-12-15T00:06:51.703Z,89.05
2022-12-15T00:07:51.902Z,89.05
2022-12-15T00:08:51.633Z,88.95
2022-12-15T00:09:52.211Z,88.95
2022-12-15T00:10:51.653Z,89.16
2022-12-15T00:12:11.921Z,89.48
2022-12-15T00:12:51.664Z,89.58
2022-12-15T00:13:51.938Z,89.69
2022-12-15T00:14:51.667Z,89.69
2022-12-15T00:15:51.950Z,89.58
2022-12-15T00:16:53.131Z,89.48
2022-12-15T00:17:52.023Z,89.48
2022-12-15T00:18:51.684Z,89.58
2022-12-15T00:19:53.382Z,89.69
2022-12-15T00:20:51.703Z,89.73
2022-12-15T00:22:11.995Z,89.73
2022-12-15T00:22:51.723Z,89.84
2022-12-15T00:23:52.931Z,89.94
2022-12-15T00:24:51.724Z,90.05
2022-12-15T00:25:51.509Z,90.26
2022-12-15T00:26:52.226Z,90.22
2022-12-15T00:27:51.494Z,90.22
2022-12-15T00:28:51.722Z,90.11
2022-12-15T00:29:52.924Z,90.11
2022-12-15T00:30:57.438Z,90.01
2022-12-15T00:32:12.497Z,90.01
2022-12-15T00:32:51.729Z,90.11
2022-12-15T00:33:51.480Z,90.11
2022-12-15T00:34:51.707Z,90.01
2022-12-15T00:35:51.476Z,90.01
2022-12-15T00:36:51.705Z,90.01
2022-12-15T00:37:51.454Z,89.90
2022-12-15T00:38:51.712Z,89.79
2022-12-15T00:39:51.482Z,89.58
2022-12-15T00:40:51.706Z,89.58
2022-12-15T00:42:11.493Z,89.48
2022-12-15T00:42:51.713Z,89.48
2022-12-15T00:43:52.924Z,89.48
2022-12-15T00:44:51.720Z,89.48
2022-12-15T00:45:51.488Z,89.48
2022-12-15T00:46:51.769Z,89.69
2022-12-15T00:47:51.485Z,89.79
2022-12-15T00:48:51.720Z,89.79
2022-12-15T00:49:51.471Z,89.90
2022-12-15T00:50:51.215Z,89.90
2022-12-15T00:52:11.495Z,89.79
2022-12-15T00:52:51.227Z,89.58
2022-12-15T00:53:51.458Z,89.48
2022-12-15T00:54:51.216Z,89.48
2022-12-15T00:55:51.469Z,89.58
2022-12-15T00:56:51.226Z,89.58
2022-12-15T00:57:51.615Z,89.48
2022-12-15T00:58:51.235Z,89.69
2022-12-15T00:59:51.536Z,89.90
2022-12-15T01:00:51.931Z,90.01
2022-12-15T01:02:11.572Z,90.22
2022-12-15T01:02:51.496Z,90.22
2022-12-15T01:03:53.001Z,90.22
2022-12-15T01:04:51.287Z,90.11
2022-12-15T01:05:51.522Z,90.01
2022-12-15T01:06:52.715Z,90.01
2022-12-15T01:07:51.524Z,90.05
2022-12-15T01:08:51.280Z,90.11
2022-12-15T01:09:52.977Z,90.22
2022-12-15T01:10:51.290Z,90.22
2022-12-15T01:12:11.537Z,90.16
2022-12-15T01:12:52.718Z,90.16
2022-12-15T01:13:51.042Z,90.16
2022-12-15T01:14:51.265Z,90.16
2022-12-15T01:15:51.037Z,90.26
2022-12-15T01:16:51.268Z,90.37
2022-12-15T01:17:51.020Z,90.47
2022-12-15T01:18:51.337Z,90.47
2022-12-15T01:19:51.088Z,90.37
2022-12-15T01:20:51.342Z,90.16
2022-12-15T01:22:11.097Z,90.05
2022-12-15T01:22:51.373Z,90.05
2022-12-15T01:23:51.113Z,89.94
2022-12-15T01:24:51.384Z,89.94
2022-12-15T01:25:51.113Z,89.84
2022-12-15T01:26:51.388Z,89.73
2022-12-15T01:27:51.142Z,89.73
2022-12-15T01:28:50.879Z,89.84
2022-12-15T01:29:51.159Z,90.05
2022-12-15T01:30:50.910Z,90.05
2022-12-15T01:32:11.179Z,89.94
2022-12-15T01:32:50.914Z,89.94
2022-12-15T01:33:51.184Z,89.94
2022-12-15T01:34:50.920Z,90.05
2022-12-15T01:35:51.200Z,90.05
2022-12-15T01:36:50.927Z,90.05
2022-12-15T01:37:51.189Z,90.05
2022-12-15T01:38:54.283Z,90.05
2022-12-15T01:39:51.189Z,90.05
2022-12-15T01:40:50.934Z,90.16
2022-12-15T01:42:11.218Z,90.16
2022-12-15T01:42:51.880Z,90.26
2022-12-15T01:43:51.200Z,90.22
2022-12-15T01:44:50.925Z,90.22
2022-12-15T01:45:51.855Z,90.01
2022-12-15T01:46:50.977Z,90.01
2022-12-15T01:47:50.695Z,90.01
2022-12-15T01:48:50.935Z,90.11
2022-12-15T01:49:50.671Z,90.01
2022-12-15T01:50:50.912Z,90.01
2022-12-15T01:52:11.169Z,90.01
2022-12-15T01:52:51.056Z,90.01
2022-12-15T01:53:50.675Z,89.90
2022-12-15T01:54:50.914Z,89.69
2022-12-15T01:55:51.097Z,89.73
2022-12-15T01:56:50.943Z,89.62
2022-12-15T01:57:50.719Z,89.69
2022-12-15T01:58:52.459Z,89.73
2022-12-15T01:59:50.757Z,89.73
2022-12-15T02:00:51.063Z,89.62
2022-12-15T02:02:10.852Z,89.62
2022-12-15T02:02:51.074Z,89.51
2022-12-15T02:03:50.753Z,89.51
2022-12-15T02:04:51.042Z,89.62
2022-12-15T02:05:50.755Z,89.62
2022-12-15T02:06:51.000Z,89.73
2022-12-15T02:07:50.738Z,89.94
2022-12-15T02:08:50.485Z,90.05
2022-12-15T02:09:50.761Z,90.26
2022-12-15T02:10:50.501Z,90.47
2022-12-15T02:12:10.770Z,90.58
2022-12-15T02:12:50.502Z,90.58
2022-12-15T02:13:52.209Z,90.69
2022-12-15T02:14:50.505Z,90.69
2022-12-15T02:15:50.792Z,90.58
2022-12-15T02:16:50.602Z,90.47
2022-12-15T02:17:50.752Z,90.37
2022-12-15T02:18:50.496Z,90.16
2022-12-15T02:19:52.218Z,90.05
2022-12-15T02:20:50.641Z,89.84
2022-12-15T02:22:12.219Z,89.84
2022-12-15T02:22:50.646Z,89.84
2022-12-15T02:23:50.762Z,89.84
2022-12-15T02:24:50.527Z,89.84
2022-12-15T02:25:52.233Z,89.84
2022-12-15T02:26:50.566Z,89.84
2022-12-15T02:27:50.795Z,89.84
2022-12-15T02:28:50.542Z,89.73
2022-12-15T02:29:50.310Z,89.84
2022-12-15T02:30:50.562Z,89.84
2022-12-15T02:32:10.502Z,89.84
2022-12-15T02:32:50.564Z,89.84
2022-12-15T02:33:50.328Z,89.73
2022-12-15T02:34:50.937Z,89.73
2022-12-15T02:35:50.341Z,89.73
2022-12-15T02:36:50.559Z,89.84
2022-12-15T02:37:50.327Z,89.84
2022-12-15T02:38:50.570Z,89.94
2022-12-15T02:39:50.360Z,90.05
2022-12-15T02:40:52.014Z,90.16
2022-12-15T02:42:10.477Z,90.37
2022-12-15T02:42:50.583Z,90.37
2022-12-15T02:43:50.372Z,90.37
2022-12-15T02:44:50.613Z,90.37
2022-12-15T02:45:50.441Z,90.37
2022-12-15T02:46:50.794Z,90.37
2022-12-15T02:47:50.414Z,90.47
2022-12-15T02:48:50.145Z,90.58
2022-12-15T02:49:50.398Z,90.58
2022-12-15T02:50:50.632Z,90.47
2022-12-15T02:52:10.582Z,90.26
2022-12-15T02:52:50.150Z,90.26
2022-12-15T02:53:50.401Z,90.26
2022-12-15T02:54:50.163Z,90.16
2022-12-15T02:55:50.535Z,90.05
2022-12-15T02:56:50.174Z,90.05
2022-12-15T02:57:50.430Z,90.05
2022-12-15T02:58:50.187Z,90.05
2022-12-15T02:59:50.434Z,90.16
2022-12-15T03:00:50.278Z,90.16
2022-12-15T03:02:10.716Z,90.16
2022-12-15T03:02:50.332Z,90.19
2022-12-15T03:03:50.447Z,90.19
2022-12-15T03:04:50.206Z,90.19
2022-12-15T03:05:50.436Z,90.30
2022-12-15T03:06:50.206Z,90.41
2022-12-15T03:07:51.420Z,90.41
2022-12-15T03:08:50.303Z,90.30
2022-12-15T03:09:50.061Z,90.41
2022-12-15T03:10:50.386Z,90.62
2022-12-15T03:12:10.244Z,90.83
2022-12-15T03:12:50.427Z,90.83
2022-12-15T03:13:50.377Z,90.83
2022-12-15T03:14:49.939Z,90.94
2022-12-15T03:15:50.266Z,90.83
2022-12-15T03:16:50.058Z,90.83
2022-12-15T03:17:50.291Z,90.94
2022-12-15T03:18:50.062Z,91.05
2022-12-15T03:19:50.386Z,90.94
2022-12-15T03:20:50.177Z,90.83
2022-12-15T03:22:09.973Z,90.83
2022-12-15T03:22:50.261Z,90.83
2022-12-15T03:23:50.024Z,90.83
2022-12-15T03:24:50.271Z,90.72
2022-12-15T03:25:50.087Z,90.62
2022-12-15T03:26:49.835Z,90.52
2022-12-15T03:27:50.102Z,90.62
2022-12-15T03:28:49.872Z,90.83
2022-12-15T03:29:50.165Z,90.94
2022-12-15T03:30:50.531Z,90.94
2022-12-15T03:32:10.396Z,90.94
2022-12-15T03:32:50.017Z,90.94
2022-12-15T03:33:49.802Z,90.94
2022-12-15T03:34:50.107Z,90.94
2022-12-15T03:35:49.876Z,90.94
2022-12-15T03:36:50.122Z,90.94
2022-12-15T03:37:49.931Z,90.94
2022-12-15T03:38:49.694Z,90.94
2022-12-15T03:39:49.975Z,90.94
2022-12-15T03:40:49.751Z,90.94
2022-12-15T03:42:10.033Z,91.05
2022-12-15T03:42:49.823Z,91.05
2022-12-15T03:43:50.042Z,91.15
2022-12-15T03:44:49.834Z,91.25
2022-12-15T03:45:49.686Z,91.15
2022-12-15T03:46:49.840Z,91.15
2022-12-15T03:47:50.278Z,91.22
2022-12-15T03:48:49.840Z,91.32
2022-12-15T03:49:49.578Z,91.32
2022-12-15T03:50:49.840Z,91.32
2022-12-15T03:52:09.588Z,91.32
2022-12-15T03:52:49.837Z,91.32
2022-12-15T03:53:49.573Z,91.32
2022-12-15T03:54:49.847Z,91.25
2022-12-15T03:55:49.587Z,91.15
2022-12-15T03:56:49.847Z,91.15
2022-12-15T03:57:49.569Z,91.15
2022-12-15T03:58:49.836Z,91.25
2022-12-15T03:59:49.563Z,91.25
2022-12-15T04:00:49.811Z,91.36
2022-12-15T04:02:09.726Z,91.47
2022-12-15T04:02:49.920Z,91.47
2022-12-15T04:03:49.616Z,91.58
2022-12-15T04:04:49.798Z,91.79
2022-12-15T04:05:49.790Z,91.75
2022-12-15T04:06:49.819Z,91.68
2022-12-15T04:07:49.548Z,91.68
2022-12-15T04:08:49.892Z,91.68
2022-12-15T04:09:49.557Z,91.58
2022-12-15T04:10:49.811Z,91.58
2022-12-15T04:12:09.575Z,91.58
2022-12-15T04:12:49.821Z,91.58
2022-12-15T04:13:49.553Z,91.47
2022-12-15T04:14:51.263Z,91.47
2022-12-15T04:15:49.571Z,91.47
2022-12-15T04:16:49.367Z,91.47
2022-12-15T04:17:49.660Z,91.47
2022-12-15T04:18:49.310Z,91.47
2022-12-15T04:19:49.540Z,91.36
2022-12-15T04:20:50.404Z,91.43
2022-12-15T04:22:13.726Z,91.36
2022-12-15T04:22:50.290Z,91.36
2022-12-15T04:23:49.543Z,91.36
2022-12-15T04:24:49.302Z,91.36
2022-12-15T04:25:49.547Z,91.36
2022-12-15T04:26:49.316Z,91.36
2022-12-15T04:27:49.558Z,91.25
2022-12-15T04:28:49.322Z,91.25
2022-12-15T04:29:49.555Z,91.25
2022-12-15T04:30:49.433Z,91.47
2022-12-15T04:32:10.610Z,91.58
2022-12-15T04:32:49.823Z,91.53
2022-12-15T04:33:49.606Z,91.68
2022-12-15T04:34:49.371Z,91.75
2022-12-15T04:35:49.922Z,91.75
2022-12-15T04:36:49.371Z,91.85
2022-12-15T04:37:49.097Z,91.85
2022-12-15T04:38:50.161Z,91.85
2022-12-15T04:39:49.097Z,91.96
2022-12-15T04:40:49.349Z,92.07
2022-12-15T04:42:12.103Z,92.17
2022-12-15T04:42:49.393Z,92.17
2022-12-15T04:43:49.149Z,92.17
2022-12-15T04:44:50.132Z,92.17
2022-12-15T04:45:49.151Z,92.17
2022-12-15T04:46:49.407Z,92.07
2022-12-15T04:47:49.146Z,92.17
2022-12-15T04:48:49.401Z,92.07
2022-12-15T04:49:49.153Z,92.07
2022-12-15T04:50:49.391Z,92.07
2022-12-15T04:52:10.803Z,92.07
2022-12-15T04:52:49.405Z,92.07
2022-12-15T04:53:49.203Z,91.96
2022-12-15T04:54:49.415Z,91.85
2022-12-15T04:55:49.173Z,91.75
2022-12-15T04:56:49.868Z,91.75
2022-12-15T04:57:49.173Z,91.75
2022-12-15T04:58:48.916Z,91.85
2022-12-15T04:59:49.166Z,91.96
2022-12-15T05:00:48.900Z,92.07
2022-12-15T05:02:10.080Z,92.28
2022-12-15T05:02:49.916Z,92.38
2022-12-15T05:03:49.172Z,92.38
2022-12-15T05:04:48.992Z,92.49
2022-12-15T05:05:49.194Z,92.49
2022-12-15T05:06:48.941Z,92.49
2022-12-15T05:07:49.193Z,92.49
2022-12-15T05:08:50.184Z,92.60
2022-12-15T05:09:49.210Z,92.64
2022-12-15T05:10:48.940Z,92.60
2022-12-15T05:12:10.789Z,92.49
2022-12-15T05:12:49.035Z,92.53
2022-12-15T05:13:49.293Z,92.53
2022-12-15T05:14:49.461Z,92.43
2022-12-15T05:15:48.870Z,92.43
2022-12-15T05:16:49.103Z,92.32
2022-12-15T05:17:48.790Z,92.43
2022-12-15T05:18:49.031Z,92.43
2022-12-15T05:19:48.793Z,92.43
2022-12-15T05:20:55.144Z,92.32
2022-12-15T05:22:10.365Z,92.32
2022-12-15T05:22:49.114Z,92.21
2022-12-15T05:23:48.876Z,92.21
2022-12-15T05:24:49.109Z,92.11
2022-12-15T05:25:48.865Z,92.11
2022-12-15T05:26:52.667Z,92.00
2022-12-15T05:27:48.883Z,92.00
2022-12-15T05:28:49.095Z,92.00
2022-12-15T05:29:48.859Z,91.89
2022-12-15T05:30:49.143Z,92.00
2022-12-15T05:32:09.474Z,92.00
2022-12-15T05:32:49.876Z,92.00
2022-12-15T05:33:48.876Z,92.00
2022-12-15T05:34:48.593Z,92.00
2022-12-15T05:35:48.861Z,92.00
2022-12-15T05:36:48.607Z,92.00
2022-12-15T05:37:49.360Z,92.00
2022-12-15T05:38:48.614Z,92.00
2022-12-15T05:39:48.861Z,91.89
2022-12-15T05:40:48.612Z,91.89
2022-12-15T05:42:10.353Z,91.89
2022-12-15T05:42:50.271Z,91.89
2022-12-15T05:43:48.901Z,91.89
2022-12-15T05:44:48.657Z,91.89
2022-12-15T05:45:48.903Z,91.79
2022-12-15T05:46:48.745Z,91.79
2022-12-15T05:47:48.910Z,91.79
2022-12-15T05:48:48.671Z,91.79
2022-12-15T05:49:48.919Z,91.79
2022-12-15T05:50:48.688Z,91.89
2022-12-15T05:52:10.437Z,91.89
2022-12-15T05:52:49.590Z,92.00
2022-12-15T05:53:48.461Z,91.89
2022-12-15T05:54:48.760Z,91.89
2022-12-15T05:55:48.506Z,91.89
2022-12-15T05:56:50.277Z,91.89
2022-12-15T05:57:48.509Z,91.89
2022-12-15T05:58:48.781Z,91.68
2022-12-15T05:59:48.519Z,91.58
2022-12-15T06:00:48.769Z,91.47
2022-12-15T06:02:10.156Z,91.47
2022-12-15T06:02:49.893Z,91.47
2022-12-15T06:03:48.561Z,91.58
2022-12-15T06:04:48.378Z,91.58
2022-12-15T06:05:54.726Z,91.58
2022-12-15T06:06:49.317Z,91.68
2022-12-15T06:07:48.570Z,91.79
2022-12-15T06:08:49.957Z,91.89
2022-12-15T06:09:48.562Z,92.11
2022-12-15T06:10:48.330Z,92.14
2022-12-15T06:12:09.497Z,92.36
2022-12-15T06:12:48.419Z,92.36
2022-12-15T06:13:48.659Z,92.36
2022-12-15T06:14:50.064Z,92.47
2022-12-15T06:15:48.303Z,92.47
2022-12-15T06:16:50.138Z,92.68
2022-12-15T06:17:49.517Z,92.79
2022-12-15T06:18:50.013Z,92.79
2022-12-15T06:19:48.311Z,92.79
2022-12-15T06:20:49.587Z,92.79
2022-12-15T06:22:08.397Z,92.79
2022-12-15T06:22:50.022Z,92.79
2022-12-15T06:23:48.407Z,92.68
2022-12-15T06:24:48.185Z,92.79
2022-12-15T06:25:48.429Z,92.79
2022-12-15T06:26:49.719Z,92.74
2022-12-15T06:27:48.460Z,92.68
2022-12-15T06:28:48.217Z,92.57
2022-12-15T06:29:48.440Z,92.57
2022-12-15T06:30:48.270Z,92.47
2022-12-15T06:32:08.507Z,92.47
2022-12-15T06:32:49.994Z,92.47
2022-12-15T06:33:48.052Z,92.25
2022-12-15T06:34:48.323Z,92.25
2022-12-15T06:35:48.581Z,92.14
2022-12-15T06:36:48.341Z,92.04
2022-12-15T06:37:48.131Z,91.83
2022-12-15T06:38:50.000Z,91.83
2022-12-15T06:39:48.095Z,91.83
2022-12-15T06:40:48.357Z,91.72
2022-12-15T06:42:08.110Z,91.61
2022-12-15T06:42:48.386Z,91.61
2022-12-15T06:43:48.125Z,91.51
2022-12-15T06:44:48.402Z,91.51
2022-12-15T06:45:48.127Z,91.51
2022-12-15T06:46:48.498Z,91.61
2022-12-15T06:47:48.181Z,91.72
2022-12-15T06:48:47.934Z,91.83
2022-12-15T06:49:48.184Z,91.94
2022-12-15T06:50:50.311Z,91.94
2022-12-15T06:52:08.229Z,92.04
2022-12-15T06:52:49.418Z,92.04
2022-12-15T06:53:48.246Z,92.14
2022-12-15T06:54:49.457Z,92.25
2022-12-15T06:55:48.263Z,92.36
2022-12-15T06:56:49.958Z,92.36
2022-12-15T06:57:48.247Z,92.25
2022-12-15T06:58:48.015Z,92.25
2022-12-15T06:59:48.273Z,92.25
2022-12-15T07:00:48.431Z,92.25
2022-12-15T07:02:08.454Z,92.25
2022-12-15T07:02:49.854Z,92.14
2022-12-15T07:03:49.550Z,92.14
2022-12-15T07:04:48.185Z,92.14
2022-12-15T07:05:48.451Z,92.14
2022-12-15T07:06:48.240Z,92.14
2022-12-15T07:07:48.024Z,92.25
2022-12-15T07:08:47.889Z,92.25
2022-12-15T07:09:48.058Z,92.14
2022-12-15T07:10:48.523Z,92.04
2022-12-15T07:12:08.116Z,92.04
2022-12-15T07:12:48.333Z,91.94
2022-12-15T07:13:48.131Z,91.72
2022-12-15T07:14:53.181Z,91.61
2022-12-15T07:15:49.185Z,91.72
2022-12-15T07:16:47.990Z,91.83
2022-12-15T07:17:48.155Z,92.04
2022-12-15T07:18:47.955Z,92.25
2022-12-15T07:19:48.719Z,92.47
2022-12-15T07:20:49.858Z,92.57
2022-12-15T07:22:07.796Z,92.57
2022-12-15T07:22:48.024Z,92.57
2022-12-15T07:23:57.224Z,92.68
2022-12-15T07:24:48.631Z,92.68
2022-12-15T07:25:48.847Z,92.57
2022-12-15T07:26:49.176Z,92.57
2022-12-15T07:27:47.981Z,92.47
2022-12-15T07:28:49.157Z,92.47
2022-12-15T07:29:49.445Z,92.36
2022-12-15T07:30:49.204Z,92.36
2022-12-15T07:32:08.033Z,92.36
2022-12-15T07:32:50.090Z,92.36
2022-12-15T07:33:49.085Z,92.36
2022-12-15T07:34:48.557Z,92.36
2022-12-15T07:35:49.142Z,92.36
2022-12-15T07:36:52.038Z,92.21
2022-12-15T07:37:48.047Z,92.00
2022-12-15T07:38:50.007Z,91.94
2022-12-15T07:39:47.996Z,91.79
2022-12-15T07:40:48.528Z,91.68
2022-12-15T07:42:07.980Z,91.61
2022-12-15T07:42:49.152Z,91.61
2022-12-15T07:43:48.949Z,91.72
2022-12-15T07:44:50.134Z,91.79
2022-12-15T07:45:51.562Z,91.94
2022-12-15T07:46:48.161Z,91.89
2022-12-15T07:47:49.078Z,92.00
2022-12-15T07:48:50.713Z,92.11
2022-12-15T07:49:48.268Z,92.11
2022-12-15T07:50:50.354Z,92.21
2022-12-15T07:52:07.793Z,92.32
2022-12-15T07:52:49.026Z,92.32
2022-12-15T07:53:48.827Z,92.21
2022-12-15T07:54:49.096Z,92.21
2022-12-15T07:56:06.214Z,92.11
2022-12-15T07:56:50.093Z,91.89
2022-12-15T07:57:48.039Z,91.89
2022-12-15T07:58:49.214Z,91.79
2022-12-15T07:59:48.497Z,91.79
2022-12-15T08:00:49.119Z,91.79
2022-12-15T08:02:08.785Z,91.75
2022-12-15T08:02:47.644Z,91.85
2022-12-15T08:03:48.743Z,91.75
2022-12-15T08:04:47.981Z,91.64
2022-12-15T08:05:47.710Z,91.53
2022-12-15T08:06:47.451Z,91.43
2022-12-15T08:07:48.284Z,91.43
2022-12-15T08:08:50.209Z,91.53
2022-12-15T08:09:48.830Z,91.53
2022-12-15T08:10:49.144Z,91.53
2022-12-15T08:12:07.460Z,91.43
2022-12-15T08:12:48.661Z,91.43
2022-12-15T08:14:06.996Z,91.43
2022-12-15T08:14:50.081Z,91.28
2022-12-15T08:15:48.560Z,91.28
2022-12-15T08:16:48.119Z,91.28
2022-12-15T08:17:48.127Z,91.39
2022-12-15T08:18:49.094Z,91.60
2022-12-15T08:19:48.698Z,91.71
2022-12-15T08:20:50.319Z,91.92
2022-12-15T08:22:07.318Z,92.02
2022-12-15T08:22:47.301Z,92.02
2022-12-15T08:23:48.837Z,92.02
2022-12-15T08:24:48.099Z,91.88
2022-12-15T08:25:48.057Z,91.88
2022-12-15T08:26:50.077Z,91.77
2022-12-15T08:27:47.147Z,91.77
2022-12-15T08:28:48.748Z,91.66
2022-12-15T08:29:51.454Z,91.56
2022-12-15T08:30:48.798Z,91.56
2022-12-15T08:32:07.168Z,91.56
2022-12-15T08:32:52.092Z,91.52
2022-12-15T08:33:48.127Z,91.52
2022-12-15T08:34:48.444Z,91.73
2022-12-15T08:35:56.723Z,91.75
2022-12-15T08:36:49.517Z,91.39
2022-12-15T08:37:48.388Z,90.82
2022-12-15T08:38:48.188Z,90.15
2022-12-15T08:39:48.476Z,89.51
2022-12-15T08:40:48.000Z,89.09
2022-12-15T08:42:07.123Z,88.77
2022-12-15T08:42:47.576Z,88.67
2022-12-15T08:43:49.232Z,88.71
2022-12-15T08:44:48.372Z,89.03
2022-12-15T08:45:48.734Z,89.45
2022-12-15T08:46:47.962Z,89.87
2022-12-15T08:47:48.696Z,90.19
2022-12-15T08:48:48.476Z,90.40
2022-12-15T08:49:47.573Z,90.72
2022-12-15T08:50:48.544Z,91.03
2022-12-15T08:52:06.883Z,91.25
2022-12-15T08:53:13.692Z,91.31
2022-12-15T08:53:48.822Z,91.42
2022-12-15T08:54:48.074Z,91.42
2022-12-15T08:55:47.602Z,91.38
2022-12-15T08:56:48.677Z,91.48
2022-12-15T08:57:47.202Z,91.69
2022-12-15T08:58:48.290Z,91.55
2022-12-15T08:59:48.611Z,91.30
2022-12-15T09:00:47.636Z,90.94
2022-12-15T09:02:07.390Z,90.28
2022-12-15T09:02:48.425Z,89.61
2022-12-15T09:03:48.195Z,88.62
2022-12-15T09:04:48.566Z,87.38
2022-12-15T09:05:48.266Z,85.97
2022-12-15T09:06:50.822Z,84.50
2022-12-15T09:07:48.288Z,83.66
2022-12-15T09:08:48.474Z,83.45
2022-12-15T09:09:46.945Z,83.39
2022-12-15T09:10:46.695Z,83.49
2022-12-15T09:12:07.974Z,83.45
2022-12-15T09:12:46.712Z,83.24
2022-12-15T09:13:46.982Z,83.10
2022-12-15T09:14:46.730Z,82.57
2022-12-15T09:16:08.963Z,82.04
2022-12-15T09:16:50.386Z,81.98
2022-12-15T09:17:47.005Z,82.08
2022-12-15T09:18:46.757Z,82.29
2022-12-15T09:19:47.029Z,82.61
2022-12-15T09:20:46.787Z,82.82
2022-12-15T09:22:06.567Z,82.92
2022-12-15T09:22:46.828Z,83.07
2022-12-15T09:23:46.574Z,83.59
2022-12-15T09:24:46.865Z,83.91
2022-12-15T09:25:46.731Z,84.12
2022-12-15T09:26:46.948Z,84.33
2022-12-15T09:27:46.712Z,84.54
2022-12-15T09:28:50.317Z,84.86
2022-12-15T09:29:48.227Z,84.86
2022-12-15T09:30:48.045Z,84.75
2022-12-15T09:32:13.676Z,84.61
2022-12-15T09:32:49.143Z,84.61
2022-12-15T09:33:47.903Z,84.71
2022-12-15T09:34:47.125Z,84.47
2022-12-15T09:35:47.980Z,84.42
2022-12-15T09:36:48.277Z,84.08
2022-12-15T09:37:51.589Z,83.30
2022-12-15T09:38:48.902Z,82.70
2022-12-15T09:39:47.646Z,81.72
2022-12-15T09:40:50.073Z,80.32
2022-12-15T09:42:06.803Z,79.48
2022-12-15T09:42:54.904Z,79.23
2022-12-15T09:43:49.457Z,78.15
2022-12-15T09:44:48.089Z,77.94
2022-12-15T09:45:48.026Z,77.24
2022-12-15T09:46:50.264Z,76.57
2022-12-15T09:47:46.609Z,76.12
2022-12-15T09:48:48.218Z,75.04
2022-12-15T09:49:46.533Z,74.45
2022-12-15T09:50:47.792Z,73.58
2022-12-15T09:52:10.920Z,72.55
2022-12-15T09:52:47.827Z,71.85
2022-12-15T09:53:55.522Z,71.33
2022-12-15T09:54:48.984Z,70.64
2022-12-15T09:55:47.185Z,70.02
2022-12-15T09:56:50.094Z,67.77
2022-12-15T09:57:46.152Z,67.37
2022-12-15T09:58:47.123Z,65.44
2022-12-15T09:59:47.993Z,63.51
2022-12-15T10:00:52.359Z,63.15
2022-12-15T10:02:06.841Z,61.18
2022-12-15T10:02:46.203Z,60.46
2022-12-15T10:03:47.187Z,61.07
2022-12-15T10:04:47.032Z,60.46
2022-12-15T10:06:50.642Z,60.04
2022-12-15T10:07:45.650Z,60.66
2022-12-15T10:08:46.109Z,60.04
2022-12-15T10:09:46.983Z,59.83
2022-12-15T10:10:47.803Z,60.97
2022-12-15T10:12:06.244Z,60.35
2022-12-15T10:12:59.877Z,59.86
2022-12-15T10:13:48.285Z,59.34
2022-12-15T10:14:49.877Z,59.86
2022-12-15T10:15:50.201Z,60.17
2022-12-15T10:16:47.593Z,60.27
2022-12-15T10:17:46.448Z,60.69
2022-12-15T10:18:47.631Z,60.48
2022-12-15T10:19:50.185Z,60.27
2022-12-15T10:20:46.343Z,60.66
2022-12-15T10:22:06.113Z,60.14
2022-12-15T10:22:46.505Z,60.46
2022-12-15T10:23:46.876Z,61.15
2022-12-15T10:25:47.643Z,60.60
2022-12-15T10:26:47.544Z,60.91
2022-12-15T10:28:51.183Z,59.39
2022-12-15T10:29:47.610Z,59.29
2022-12-15T10:30:47.403Z,59.60
2022-12-15T10:32:06.887Z,60.11
2022-12-15T10:32:50.376Z,59.78
2022-12-15T10:33:50.243Z,60.09
2022-12-15T10:34:47.513Z,60.01
2022-12-15T10:35:47.297Z,59.91
2022-12-15T10:36:47.482Z,60.60
2022-12-15T10:37:46.632Z,61.30
2022-12-15T10:38:47.544Z,59.64
2022-12-15T10:39:45.948Z,59.44
2022-12-15T10:40:50.598Z,58.92
2022-12-15T10:42:06.637Z,59.44
2022-12-15T10:42:47.288Z,59.10
2022-12-15T10:44:50.416Z,58.53
2022-12-15T10:45:46.071Z,57.78
2022-12-15T10:46:47.286Z,57.32
2022-12-15T10:47:47.475Z,56.26
2022-12-15T10:48:48.481Z,56.03
2022-12-15T10:49:46.141Z,55.21
2022-12-15T10:50:47.331Z,55.21
2022-12-15T10:52:05.852Z,54.82
2022-12-15T10:52:47.545Z,54.71
2022-12-15T10:53:50.262Z,55.15
2022-12-15T10:54:47.086Z,54.53
2022-12-15T10:55:49.793Z,56.59
2022-12-15T10:56:47.133Z,57.18
2022-12-15T10:57:47.423Z,57.09
2022-12-15T10:58:47.278Z,56.46
2022-12-15T10:59:47.018Z,56.98
2022-12-15T11:00:46.659Z,56.98
2022-12-15T11:02:05.861Z,55.41
2022-12-15T11:02:47.582Z,56.65
2022-12-15T11:03:47.412Z,57.14
2022-12-15T11:04:46.184Z,55.87
2022-12-15T11:05:47.220Z,54.72
2022-12-15T11:06:46.156Z,54.66
2022-12-15T11:07:47.643Z,53.23
2022-12-15T11:08:47.048Z,53.23
2022-12-15T11:09:47.310Z,52.53
2022-12-15T11:10:47.091Z,53.02
2022-12-15T11:17:57.147Z,52.61
2022-12-15T11:18:03.556Z,50.72
2022-12-15T11:19:03.867Z,50.54
2022-12-15T11:20:04.199Z,49.93
2022-12-15T11:22:18.009Z,50.23
2022-12-15T11:22:23.777Z,50.62
2022-12-15T11:25:49.057Z,49.47
2022-12-15T11:26:34.402Z,48.60
2022-12-15T11:28:05.139Z,48.81
2022-12-15T11:28:09.940Z,48.38
2022-12-15T11:35:38.685Z,48.60
2022-12-15T11:35:50.722Z,49.14
2022-12-15T11:36:44.085Z,49.24
2022-12-15T11:37:44.325Z,49.47
2022-12-15T11:38:44.106Z,49.16
2022-12-15T11:39:44.363Z,49.59
2022-12-15T11:42:39.116Z,50.23
2022-12-15T11:42:43.913Z,50.48
2022-12-15T11:43:46.122Z,51.79
2022-12-15T11:44:44.437Z,51.41
2022-12-15T11:46:04.712Z,51.84
2022-12-15T11:46:46.006Z,52.25
2022-12-15T11:47:45.183Z,52.38
2022-12-15T11:48:46.080Z,52.69
2022-12-15T11:49:45.465Z,53.51
2022-12-15T11:50:46.361Z,53.43
2022-12-15T11:51:45.710Z,53.45
2022-12-15T11:52:45.179Z,54.07
2022-12-15T11:53:45.185Z,53.97
2022-12-15T11:54:46.152Z,54.36
2022-12-15T11:56:04.500Z,54.05
2022-12-15T11:56:46.252Z,54.36
2022-12-15T11:57:45.551Z,54.56
2022-12-15T11:58:45.910Z,54.05
2022-12-15T11:59:44.789Z,53.56
2022-12-15T12:00:45.651Z,54.51
2022-12-15T12:01:53.907Z,55.18
2022-12-15T12:02:47.504Z,56.23
2022-12-15T12:03:44.630Z,57.11
2022-12-15T12:04:45.227Z,57.76
2022-12-15T12:06:05.767Z,59.02
2022-12-15T12:06:46.034Z,59.67
2022-12-15T12:07:46.370Z,61.07
2022-12-15T12:08:45.669Z,62.46
2022-12-15T12:09:45.975Z,63.76
2022-12-15T12:10:45.449Z,64.73
2022-12-15T12:11:45.713Z,66.03
2022-12-15T12:12:45.998Z,66.78
2022-12-15T12:13:44.415Z,67.34
2022-12-15T12:14:45.711Z,68.30
2022-12-15T12:16:05.541Z,69.27
2022-12-15T12:16:45.188Z,69.30
2022-12-15T12:17:45.196Z,70.23
2022-12-15T12:18:45.999Z,71.20
2022-12-15T12:19:45.804Z,72.03
2022-12-15T12:20:46.672Z,72.17
2022-12-15T12:21:46.040Z,72.14
2022-12-15T12:22:45.686Z,72.55
2022-12-15T12:23:45.665Z,72.80
2022-12-15T12:24:44.974Z,73.00
2022-12-15T12:26:04.298Z,73.32
2022-12-15T12:26:45.560Z,73.52
2022-12-15T12:27:48.746Z,73.56
2022-12-15T12:28:44.718Z,73.77
2022-12-15T12:29:45.482Z,73.97
2022-12-15T12:30:45.887Z,74.11
2022-12-15T12:31:45.681Z,74.21
2022-12-15T12:32:45.583Z,74.32
2022-12-15T12:33:44.627Z,74.84
2022-12-15T12:34:43.755Z,75.05
2022-12-15T12:36:03.414Z,74.84
2022-12-15T12:36:45.216Z,75.26
2022-12-15T12:37:45.541Z,75.50
2022-12-15T12:38:44.822Z,75.50
2022-12-15T12:39:45.625Z,75.50
2022-12-15T12:40:44.710Z,75.92
2022-12-15T12:41:47.012Z,76.33
2022-12-15T12:42:45.553Z,76.65
2022-12-15T12:43:44.868Z,76.75
2022-12-15T12:44:46.167Z,77.10
2022-12-15T12:46:03.994Z,77.41
2022-12-15T12:46:45.703Z,77.41
2022-12-15T12:47:45.607Z,77.31
2022-12-15T12:48:45.398Z,77.41
2022-12-15T12:49:44.266Z,77.72
2022-12-15T12:50:44.987Z,77.72
2022-12-15T12:51:45.713Z,77.83
2022-12-15T12:52:45.712Z,77.72
2022-12-15T12:53:45.032Z,77.83
2022-12-15T12:54:43.908Z,77.83
2022-12-15T12:56:04.130Z,78.03
2022-12-15T12:56:45.573Z,78.07
2022-12-15T12:57:46.238Z,78.49
2022-12-15T12:58:44.737Z,78.80
2022-12-15T12:59:48.865Z,78.59
2022-12-15T13:00:45.357Z,78.69
2022-12-15T13:01:45.736Z,79.01
2022-12-15T13:02:44.093Z,79.22
2022-12-15T13:03:45.183Z,79.32
2022-12-15T13:04:45.073Z,79.63
2022-12-15T13:06:03.828Z,79.84
2022-12-15T13:06:45.526Z,79.84
2022-12-15T13:07:45.312Z,80.09
2022-12-15T13:08:44.686Z,79.94
2022-12-15T13:09:47.684Z,79.98
2022-12-15T13:10:45.234Z,80.09